createdAt,value
2022-09-20T00:01:32.899Z,101103.38
2022-09-20T00:04:05.083Z,101101.53
2022-09-20T00:06:34.351Z,101104.34
2022-09-20T00:09:03.522Z,101101.03
2022-09-20T00:11:33.707Z,101102.88
2022-09-20T00:14:03.128Z,101109.38
2022-09-20T00:16:36.766Z,101105.97
2022-09-20T00:19:05.808Z,101109.88
2022-09-20T00:21:35.068Z,101114.41
2022-09-20T00:24:02.734Z,101109.25
2022-09-20T00:26:29.862Z,101112.09
2022-09-20T00:28:58.666Z,101112.34
2022-09-20T00:31:26.418Z,101112.44
2022-09-20T00:34:16.757Z,101103.50
2022-09-20T00:36:44.998Z,101110.00
2022-09-20T00:39:14.879Z,101110.97
2022-09-20T00:41:43.236Z,101106.56
2022-09-20T00:44:45.520Z,101106.81
2022-09-20T00:47:25.038Z,101115.00
2022-09-20T00:50:18.150Z,101107.03
2022-09-20T00:52:52.803Z,101111.81
2022-09-20T00:55:20.875Z,101108.38
2022-09-20T00:57:49.120Z,101108.28
2022-09-20T01:00:16.427Z,101107.28
2022-09-20T01:02:51.007Z,101102.88
2022-09-20T01:05:21.487Z,101111.06
2022-09-20T01:07:51.874Z,101112.81
2022-09-20T01:10:19.046Z,101113.66
2022-09-20T01:12:47.524Z,101121.75
2022-09-20T01:15:15.775Z,101125.41
2022-09-20T01:17:48.813Z,101128.00
2022-09-20T01:20:29.200Z,101137.19
2022-09-20T01:23:20.772Z,101132.28
2022-09-20T01:26:09.996Z,101137.91
2022-09-20T01:28:38.347Z,101144.50
2022-09-20T01:31:13.620Z,101147.34
2022-09-20T01:33:40.534Z,101136.03
2022-09-20T01:36:13.482Z,101142.75
2022-09-20T01:39:11.201Z,101146.53
2022-09-20T01:41:49.595Z,101149.13
2022-09-20T01:44:57.254Z,101141.06
2022-09-20T01:47:40.580Z,101135.13
2022-09-20T01:50:26.306Z,101149.84
2022-09-20T01:53:11.707Z,101141.88
2022-09-20T01:56:23.160Z,101141.97
2022-09-20T01:59:24.095Z,101148.59
2022-09-20T02:01:54.582Z,101155.81
2022-09-20T02:11:14.116Z,101160.06
2022-09-20T02:13:41.735Z,101157.06
2022-09-20T02:19:47.098Z,101153.31
2022-09-20T02:22:41.369Z,101146.81
2022-09-20T02:25:26.249Z,101151.44
2022-09-20T02:34:37.003Z,101157.28
2022-09-20T02:37:27.265Z,101157.72
2022-09-20T02:40:50.435Z,101150.34
2022-09-20T02:43:36.035Z,101147.97
2022-09-20T02:46:46.107Z,101150.66
2022-09-20T02:49:49.747Z,101158.88
2022-09-20T02:52:57.202Z,101161.78
2022-09-20T02:56:27.398Z,101162.84
2022-09-20T03:02:46.873Z,101161.25
2022-09-20T03:08:32.836Z,101162.22
2022-09-20T03:27:46.927Z,101181.19
2022-09-20T03:34:02.888Z,101192.16
2022-09-20T03:36:59.674Z,101191.31
2022-09-20T03:39:45.199Z,101190.56
2022-09-20T03:42:30.043Z,101192.41
2022-09-20T03:45:12.614Z,101196.06
2022-09-20T03:47:58.325Z,101189.81
2022-09-20T03:50:28.006Z,101187.03
2022-09-20T03:53:04.649Z,101185.19
2022-09-20T03:56:11.431Z,101197.88
2022-09-20T03:58:53.398Z,101192.50
2022-09-20T04:01:54.177Z,101195.31
2022-09-20T04:05:04.066Z,101191.22
2022-09-20T04:08:29.699Z,101197.59
2022-09-20T04:11:27.025Z,101189.06
2022-09-20T04:17:32.810Z,101204.34
2022-09-20T04:20:11.275Z,101201.78
2022-09-20T04:31:25.052Z,101209.63
2022-09-20T04:33:56.281Z,101211.47
2022-09-20T04:36:29.072Z,101222.00
2022-09-20T04:39:25.254Z,101220.06
2022-09-20T04:42:40.322Z,101213.59
2022-09-20T04:45:30.645Z,101216.28
2022-09-20T04:48:15.460Z,101222.31
2022-09-20T04:51:04.497Z,101228.56
2022-09-20T04:54:02.047Z,101229.31
2022-09-20T04:56:41.267Z,101236.41
2022-09-20T04:59:29.850Z,101236.19
2022-09-20T05:02:24.857Z,101233.28
2022-09-20T05:05:25.878Z,101233.28
2022-09-20T05:08:33.985Z,101241.59
2022-09-20T05:11:47.254Z,101245.13
2022-09-20T05:14:38.467Z,101259.56
2022-09-20T05:17:49.659Z,101247.31
2022-09-20T05:21:17.611Z,101253.75
2022-09-20T05:24:13.832Z,101259.34
2022-09-20T05:27:06.265Z,101264.19
2022-09-20T05:30:06.547Z,101261.00
2022-09-20T05:32:56.240Z,101269.41
2022-09-20T05:35:32.833Z,101262.31
2022-09-20T05:38:17.149Z,101268.53
2022-09-20T05:41:04.716Z,101271.31
2022-09-20T05:43:38.449Z,101274.00
2022-09-20T05:46:34.187Z,101283.19
2022-09-20T05:49:22.238Z,101279.50
2022-09-20T05:52:04.202Z,101278.66
2022-09-20T05:55:00.423Z,101278.75
2022-09-20T05:58:08.793Z,101280.38
2022-09-20T06:00:46.703Z,101286.53
2022-09-20T06:03:22.992Z,101281.66
2022-09-20T06:06:38.246Z,101288.78
2022-09-20T06:09:33.573Z,101294.25
2022-09-20T06:12:17.966Z,101294.38
2022-09-20T06:15:00.224Z,101294.38
2022-09-20T06:18:20.187Z,101300.63
2022-09-20T06:21:04.614Z,101298.47
2022-09-20T06:23:32.094Z,101295.72
2022-09-20T06:26:09.290Z,101295.16
2022-09-20T06:28:43.536Z,101302.19
2022-09-20T06:31:11.445Z,101290.34
2022-09-20T06:33:56.328Z,101288.09
2022-09-20T06:36:46.115Z,101293.06
2022-09-20T06:39:59.688Z,101287.25
2022-09-20T06:42:27.614Z,101297.47
2022-09-20T06:44:54.655Z,101295.75
2022-09-20T06:47:23.663Z,101293.59
2022-09-20T06:49:50.919Z,101293.06
2022-09-20T06:52:20.993Z,101290.56
2022-09-20T06:54:54.310Z,101298.09
2022-09-20T06:57:33.984Z,101309.28
2022-09-20T07:00:01.313Z,101308.72
2022-09-20T07:02:28.844Z,101310.75
2022-09-20T07:04:57.486Z,101313.03
2022-09-20T07:07:25.086Z,101313.44
2022-09-20T07:09:52.248Z,101318.16
2022-09-20T07:12:19.599Z,101319.44
2022-09-20T07:14:46.785Z,101311.88
2022-09-20T07:17:14.789Z,101318.75
2022-09-20T07:19:42.353Z,101317.56
2022-09-20T07:22:09.499Z,101323.47
2022-09-20T07:24:36.453Z,101319.13
2022-09-20T07:27:05.271Z,101321.81
2022-09-20T07:29:32.755Z,101330.16
2022-09-20T07:31:59.821Z,101327.00
2022-09-20T07:34:27.291Z,101333.66
2022-09-20T07:36:54.976Z,101336.34
2022-09-20T07:39:22.048Z,101338.50
2022-09-20T07:41:50.714Z,101337.81
2022-09-20T07:44:22.067Z,101343.81
2022-09-20T07:46:54.683Z,101350.50
2022-09-20T07:49:23.213Z,101355.31
2022-09-20T07:51:51.220Z,101350.53
2022-09-20T07:54:19.577Z,101359.91
2022-09-20T07:56:47.607Z,101360.28
2022-09-20T07:59:15.540Z,101363.84
2022-09-20T08:01:43.175Z,101364.09
2022-09-20T08:04:11.358Z,101360.91
2022-09-20T08:06:41.571Z,101363.88
2022-09-20T08:09:11.345Z,101361.31
2022-09-20T08:11:40.598Z,101359.97
2022-09-20T08:14:08.989Z,101360.84
2022-09-20T08:16:43.508Z,101364.63
2022-09-20T08:19:17.258Z,101368.69
2022-09-20T08:21:44.860Z,101373.38
2022-09-20T08:24:12.374Z,101365.75
2022-09-20T08:26:39.775Z,101370.09
2022-09-20T08:29:07.022Z,101374.16
2022-09-20T08:31:38.846Z,101370.81
2022-09-20T08:34:09.662Z,101371.31
2022-09-20T08:36:42.045Z,101370.56
2022-09-20T08:42:33.648Z,101377.94
2022-09-20T08:45:22.169Z,101368.19
2022-09-20T08:47:58.619Z,101369.53
2022-09-20T08:50:27.066Z,101367.31
2022-09-20T08:53:00.287Z,101367.78
2022-09-20T08:55:39.924Z,101367.53
2022-09-20T08:58:12.561Z,101366.78
2022-09-20T09:00:40.735Z,101366.25
2022-09-20T09:03:13.552Z,101364.00
2022-09-20T09:05:54.964Z,101359.72
2022-09-20T09:08:37.741Z,101361.06
2022-09-20T09:11:12.868Z,101359.66
2022-09-20T09:14:04.830Z,101352.00
2022-09-20T09:16:35.720Z,101350.63
2022-09-20T09:19:33.610Z,101351.09
2022-09-20T09:22:04.598Z,101356.13
2022-09-20T09:24:31.936Z,101345.63
2022-09-20T09:27:16.332Z,101351.09
2022-09-20T09:29:55.316Z,101341.38
2022-09-20T09:32:33.265Z,101342.44
2022-09-20T09:35:30.093Z,101338.19
2022-09-20T09:38:02.316Z,101326.09
2022-09-20T09:40:32.241Z,101327.25
2022-09-20T09:43:04.241Z,101326.59
2022-09-20T09:45:39.352Z,101323.25
2022-09-20T09:48:35.766Z,101324.56
2022-09-20T09:51:15.466Z,101317.38
2022-09-20T09:53:45.587Z,101315.72
2022-09-20T09:56:17.950Z,101308.91
2022-09-20T09:59:10.576Z,101315.63
2022-09-20T10:01:59.937Z,101303.06
2022-09-20T10:04:37.467Z,101307.81
2022-09-20T10:07:16.327Z,101305.41
2022-09-20T10:09:49.232Z,101298.25
2022-09-20T10:12:54.197Z,101303.13
2022-09-20T10:15:41.990Z,101305.56
2022-09-20T10:18:13.874Z,101300.59
2022-09-20T10:20:53.163Z,101289.28
2022-09-20T10:24:07.075Z,101295.19
2022-09-20T10:27:02.264Z,101287.91
2022-09-20T10:30:16.946Z,101283.47
2022-09-20T10:33:02.283Z,101281.06
2022-09-20T10:36:09.829Z,101288.75
2022-09-20T10:38:56.724Z,101277.88
2022-09-20T10:41:55.868Z,101274.31
2022-09-20T10:44:55.208Z,101278.72
2022-09-20T10:47:34.957Z,101267.72
2022-09-20T10:50:29.474Z,101277.13
2022-09-20T10:53:25.972Z,101273.25
2022-09-20T10:56:15.982Z,101269.66
2022-09-20T10:59:13.569Z,101262.22
2022-09-20T11:02:05.207Z,101271.94
2022-09-20T11:04:54.069Z,101257.06
2022-09-20T11:07:45.498Z,101261.78
2022-09-20T11:10:43.146Z,101250.00
2022-09-20T11:14:10.220Z,101255.13
2022-09-20T11:17:08.526Z,101261.66
2022-09-20T11:19:50.830Z,101263.00
2022-09-20T11:22:56.043Z,101262.94
2022-09-20T11:25:51.941Z,101263.38
2022-09-20T11:28:30.550Z,101259.88
2022-09-20T11:31:05.025Z,101254.84
2022-09-20T11:33:42.852Z,101261.53
2022-09-20T11:36:27.348Z,101254.03
2022-09-20T11:39:22.337Z,101250.50
2022-09-20T11:41:55.778Z,101257.75
2022-09-20T11:44:22.837Z,101245.94
2022-09-20T11:46:59.935Z,101247.00
2022-09-20T11:49:35.664Z,101242.09
2022-09-20T11:52:20.449Z,101231.22
2022-09-20T11:55:07.312Z,101236.66
2022-09-20T11:57:34.641Z,101233.16
2022-09-20T12:00:05.041Z,101235.09
2022-09-20T12:02:52.256Z,101231.28
2022-09-20T12:05:46.159Z,101221.13
2022-09-20T12:08:37.246Z,101219.16
2022-09-20T12:11:14.442Z,101211.88
2022-09-20T12:13:53.124Z,101213.28
2022-09-20T12:16:46.211Z,101206.31
2022-09-20T12:19:32.943Z,101202.25
2022-09-20T12:21:59.893Z,101197.84
2022-09-20T12:24:34.003Z,101197.53
2022-09-20T12:27:43.939Z,101185.41
2022-09-20T12:30:21.891Z,101186.63
2022-09-20T12:32:58.691Z,101188.00
2022-09-20T12:35:39.139Z,101180.94
2022-09-20T12:38:21.443Z,101176.66
2022-09-20T12:41:27.790Z,101172.94
2022-09-20T12:43:59.730Z,101172.13
2022-09-20T12:46:38.569Z,101173.31
2022-09-20T12:50:05.746Z,101164.59
2022-09-20T12:52:51.286Z,101161.22
2022-09-20T12:55:30.061Z,101151.00
2022-09-20T12:58:14.820Z,101154.75
2022-09-20T13:00:56.021Z,101161.75
2022-09-20T13:03:42.837Z,101153.75
2022-09-20T13:06:12.052Z,101152.03
2022-09-20T13:08:52.649Z,101150.84
2022-09-20T13:11:31.453Z,101141.97
2022-09-20T13:14:12.565Z,101137.00
2022-09-20T13:17:05.102Z,101140.06
2022-09-20T13:19:59.044Z,101123.72
2022-09-20T13:22:34.447Z,101120.13
2022-09-20T13:25:06.461Z,101119.84
2022-09-20T13:27:57.228Z,101119.66
2022-09-20T13:30:42.259Z,101117.25
2022-09-20T13:33:35.573Z,101116.56
2022-09-20T13:36:03.467Z,101118.59
2022-09-20T13:38:31.932Z,101110.75
2022-09-20T13:41:13.125Z,101118.09
2022-09-20T13:43:43.720Z,101106.31
2022-09-20T13:46:30.082Z,101108.50
2022-09-20T13:49:27.184Z,101107.63
2022-09-20T13:51:54.489Z,101105.94
2022-09-20T13:54:31.571Z,101096.84
2022-09-20T13:57:06.797Z,101095.31
2022-09-20T13:59:42.116Z,101091.88
2022-09-20T14:02:24.724Z,101084.69
2022-09-20T14:04:55.519Z,101081.94
2022-09-20T14:07:31.055Z,101081.59
2022-09-20T14:09:59.081Z,101076.13
2022-09-20T14:12:33.664Z,101073.75
2022-09-20T14:15:11.406Z,101076.47
2022-09-20T14:17:39.130Z,101071.00
2022-09-20T14:20:17.254Z,101070.00
2022-09-20T14:22:48.569Z,101071.03
2022-09-20T14:25:16.102Z,101071.88
2022-09-20T14:27:43.103Z,101071.63
2022-09-20T14:30:39.641Z,101069.22
2022-09-20T14:33:19.486Z,101068.69
2022-09-20T14:35:51.743Z,101066.47
2022-09-20T14:38:25.189Z,101056.41
2022-09-20T14:40:52.899Z,101061.88
2022-09-20T14:43:34.703Z,101057.97
2022-09-20T14:46:05.701Z,101053.88
2022-09-20T14:48:41.244Z,101054.06
2022-09-20T14:51:22.311Z,101058.16
2022-09-20T14:54:13.738Z,101047.78
2022-09-20T14:56:50.421Z,101045.38
2022-09-20T14:59:17.707Z,101039.44
2022-09-20T15:01:59.750Z,101034.47
2022-09-20T15:04:32.732Z,101040.66
2022-09-20T15:07:06.469Z,101033.97
2022-09-20T15:09:35.299Z,101037.19
2022-09-20T15:12:09.627Z,101032.25
2022-09-20T15:14:38.123Z,101030.06
2022-09-20T15:17:05.563Z,101031.25
2022-09-20T15:19:34.566Z,101034.31
2022-09-20T15:22:02.339Z,101036.38
2022-09-20T15:24:29.957Z,101029.56
2022-09-20T15:26:57.128Z,101028.00
2022-09-20T15:29:31.870Z,101029.19
2022-09-20T15:32:01.276Z,101032.97
2022-09-20T15:34:28.951Z,101025.81
2022-09-20T15:36:56.142Z,101022.91
2022-09-20T15:39:23.752Z,101017.78
2022-09-20T15:41:53.921Z,101022.41
2022-09-20T15:44:21.063Z,101027.69
2022-09-20T15:46:51.090Z,101025.44
2022-09-20T15:49:18.877Z,101019.34
2022-09-20T15:51:46.567Z,101016.06
2022-09-20T15:54:15.419Z,101017.28
2022-09-20T15:56:43.133Z,101021.00
2022-09-20T15:59:12.572Z,101018.59
2022-09-20T16:01:43.633Z,101014.16
2022-09-20T16:04:19.621Z,101010.94
2022-09-20T16:06:49.584Z,101014.84
2022-09-20T16:09:18.163Z,101012.44
2022-09-20T16:11:50.249Z,101006.66
2022-09-20T16:14:18.330Z,101008.88
2022-09-20T16:16:45.444Z,101005.78
2022-09-20T16:19:20.753Z,101017.88
2022-09-20T16:21:58.076Z,101014.47
2022-09-20T16:24:29.339Z,101018.19
2022-09-20T16:26:57.545Z,101009.38
2022-09-20T16:29:26.050Z,101022.63
2022-09-20T16:31:54.571Z,101017.69
2022-09-20T16:34:30.343Z,101021.75
2022-09-20T16:37:15.850Z,101012.03
2022-09-20T16:39:44.464Z,101023.44
2022-09-20T16:42:13.256Z,101027.50
2022-09-20T16:44:45.352Z,101025.09
2022-09-20T16:47:25.348Z,101021.16
2022-09-20T16:49:54.232Z,101025.25
2022-09-20T16:52:21.320Z,101026.72
2022-09-20T16:54:48.736Z,101023.66
2022-09-20T16:57:16.123Z,101038.59
2022-09-20T16:59:43.287Z,101030.06
2022-09-20T17:02:13.628Z,101031.41
2022-09-20T17:04:43.498Z,101041.78
2022-09-20T17:07:10.609Z,101046.00
2022-09-20T17:09:37.519Z,101048.50
2022-09-20T17:12:10.260Z,101051.69
2022-09-20T17:14:38.113Z,101055.06
2022-09-20T17:17:05.200Z,101058.44
2022-09-20T17:19:32.362Z,101051.78
2022-09-20T17:22:00.175Z,101059.53
2022-09-20T17:24:30.158Z,101060.03
2022-09-20T17:26:57.545Z,101063.34
2022-09-20T17:29:24.709Z,101062.09
2022-09-20T17:31:55.934Z,101066.34
2022-09-20T17:34:26.477Z,101073.25
2022-09-20T17:36:55.189Z,101066.56
2022-09-20T17:39:23.039Z,101068.03
2022-09-20T17:41:50.912Z,101073.97
2022-09-20T17:44:18.201Z,101076.44
2022-09-20T17:46:48.401Z,101086.06
2022-09-20T17:49:19.313Z,101082.09
2022-09-20T17:51:53.536Z,101081.72
2022-09-20T17:54:22.635Z,101079.63
2022-09-20T17:56:52.342Z,101086.38
2022-09-20T17:59:20.945Z,101094.97
2022-09-20T18:01:51.200Z,101092.72
2022-09-20T18:04:20.987Z,101106.03
2022-09-20T18:06:51.368Z,101098.31
2022-09-20T18:09:24.807Z,101088.94
2022-09-20T18:11:54.338Z,101101.25
2022-09-20T18:14:27.628Z,101103.72
2022-09-20T18:16:59.171Z,101104.16
2022-09-20T18:19:32.550Z,101101.03
2022-09-20T18:22:03.948Z,101109.94
2022-09-20T18:24:31.794Z,101107.38
2022-09-20T18:27:00.582Z,101109.34
2022-09-20T18:29:28.654Z,101117.13
2022-09-20T18:31:56.850Z,101114.69
2022-09-20T18:34:31.065Z,101115.00
2022-09-20T18:36:59.870Z,101112.56
2022-09-20T18:39:33.213Z,101122.72
2022-09-20T18:42:00.340Z,101126.59
2022-09-20T18:44:33.967Z,101125.03
2022-09-20T18:47:04.979Z,101121.19
2022-09-20T18:49:32.463Z,101127.31
2022-09-20T18:51:59.437Z,101128.44
2022-09-20T18:54:30.874Z,101137.75
2022-09-20T18:56:59.007Z,101137.00
2022-09-20T18:59:28.154Z,101146.28
2022-09-20T19:02:46.300Z,101143.19
2022-09-20T19:05:24.374Z,101147.75
2022-09-20T19:08:09.496Z,101145.47
2022-09-20T19:10:54.705Z,101147.78
2022-09-20T19:13:26.908Z,101157.03
2022-09-20T19:16:12.013Z,101163.78
2022-09-20T19:19:19.460Z,101167.75
2022-09-20T19:22:05.588Z,101173.75
2022-09-20T19:25:06.606Z,101168.91
2022-09-20T19:27:35.268Z,101167.34
2022-09-20T19:30:03.248Z,101172.03
2022-09-20T19:32:31.131Z,101174.91
2022-09-20T19:35:01.962Z,101179.59
2022-09-20T19:38:07.315Z,101180.03
2022-09-20T19:41:19.603Z,101197.72
2022-09-20T19:44:33.503Z,101192.69
2022-09-20T19:47:50.696Z,101195.00
2022-09-20T19:50:46.267Z,101202.41
2022-09-20T19:53:19.450Z,101193.84
2022-09-20T19:55:52.536Z,101193.13
2022-09-20T19:58:20.316Z,101203.38
2022-09-20T20:00:47.946Z,101193.06
2022-09-20T20:03:16.779Z,101192.03
2022-09-20T20:06:16.332Z,101202.19
2022-09-20T20:12:25.966Z,101208.44
2022-09-20T20:15:17.987Z,101207.84
2022-09-20T20:17:55.106Z,101206.69
2022-09-20T20:20:53.191Z,101215.38
2022-09-20T20:24:05.186Z,101213.19
2022-09-20T20:26:32.316Z,101216.28
2022-09-20T20:29:00.085Z,101214.88
2022-09-20T20:31:27.224Z,101213.28
2022-09-20T20:33:54.765Z,101216.41
2022-09-20T20:36:22.310Z,101224.78
2022-09-20T20:38:51.703Z,101223.19
2022-09-20T20:41:21.559Z,101224.31
2022-09-20T20:43:56.328Z,101229.31
2022-09-20T20:46:24.585Z,101231.41
2022-09-20T20:48:51.653Z,101231.53
2022-09-20T20:51:22.789Z,101233.53
2022-09-20T20:53:55.001Z,101239.94
2022-09-20T20:56:28.866Z,101242.91
2022-09-20T20:59:00.918Z,101235.78
2022-09-20T21:01:33.578Z,101247.13
2022-09-20T21:04:01.913Z,101254.50
2022-09-20T21:06:37.091Z,101252.78
2022-09-20T21:09:09.231Z,101253.03
2022-09-20T21:11:39.236Z,101252.31
2022-09-20T21:14:07.474Z,101253.03
2022-09-20T21:16:43.105Z,101258.44
2022-09-20T21:19:15.234Z,101264.84
2022-09-20T21:21:44.766Z,101264.38
2022-09-20T21:24:17.347Z,101267.81
2022-09-20T21:26:46.058Z,101267.81
2022-09-20T21:29:15.774Z,101271.38
2022-09-20T21:31:45.456Z,101277.06
2022-09-20T21:34:15.460Z,101280.50
2022-09-20T21:36:44.724Z,101275.22
2022-09-20T21:39:12.054Z,101276.94
2022-09-20T21:41:39.684Z,101278.66
2022-09-20T21:44:10.005Z,101278.66
2022-09-20T21:46:42.426Z,101285.06
2022-09-20T21:49:12.249Z,101283.31
2022-09-20T21:51:42.037Z,101288.88
2022-09-20T21:54:10.154Z,101290.75
2022-09-20T21:56:39.994Z,101291.84
2022-09-20T21:59:07.888Z,101292.00
2022-09-20T22:01:38.399Z,101299.38
2022-09-20T22:04:09.517Z,101301.22
2022-09-20T22:06:42.688Z,101300.47
2022-09-20T22:09:13.380Z,101306.28
2022-09-20T22:11:46.986Z,101300.53
2022-09-20T22:14:20.446Z,101304.34
2022-09-20T22:16:49.079Z,101295.63
2022-09-20T22:19:17.657Z,101307.72
2022-09-20T22:21:48.242Z,101303.66
2022-09-20T22:24:17.097Z,101309.69
2022-09-20T22:26:47.945Z,101308.13
2022-09-20T22:29:15.980Z,101310.22
2022-09-20T22:31:45.679Z,101316.84
2022-09-20T22:34:30.570Z,101321.19
2022-09-20T22:36:57.530Z,101317.97
2022-09-20T22:39:24.419Z,101319.69
2022-09-20T22:41:51.510Z,101318.13
2022-09-20T22:44:18.422Z,101314.78
2022-09-20T22:46:45.268Z,101321.19
2022-09-20T22:49:12.317Z,101324.13
2022-09-20T22:51:39.515Z,101318.00
2022-09-20T22:54:10.571Z,101320.19
2022-09-20T22:56:39.427Z,101320.31
2022-09-20T22:59:13.929Z,101324.13
2022-09-20T23:01:44.229Z,101325.22
2022-09-20T23:04:14.547Z,101326.47
2022-09-20T23:06:47.799Z,101326.69
2022-09-20T23:09:18.020Z,101330.38
2022-09-20T23:11:45.619Z,101326.09
2022-09-20T23:14:18.203Z,101333.59
2022-09-20T23:16:46.107Z,101338.09
2022-09-20T23:19:14.478Z,101340.09
2022-09-20T23:21:43.747Z,101342.78
2022-09-20T23:24:15.530Z,101347.44
2022-09-20T23:26:43.781Z,101346.72
2022-09-20T23:29:16.320Z,101348.78
2022-09-20T23:31:46.839Z,101349.91
2022-09-20T23:34:15.484Z,101350.25
2022-09-20T23:36:44.384Z,101350.38
2022-09-20T23:39:12.456Z,101355.03
2022-09-20T23:41:41.409Z,101345.22
2022-09-20T23:44:10.261Z,101350.84
2022-09-20T23:46:38.538Z,101349.38
2022-09-20T23:49:06.722Z,101355.03
2022-09-20T23:51:35.415Z,101347.03
2022-09-20T23:54:04.089Z,101352.66
2022-09-20T23:56:32.221Z,101349.25
2022-09-20T23:58:59.193Z,101347.50
